KMVL/MVL METAR and TAF weather

Enter ICAO airport designator
Station Type Date Time Source
KMVL METAR 2021/05/15 01:54 UTC NOAA

KMVL 150154Z AUTO 17004KT 10SM BKN100 09/06 A3016 RMK AO2 SLP217 T00940056


Station Type Date Time Source
KMVL Decoded METAR 2021/05/15 01:54 UTC NOAA

MORRISVILLE STOWE STATE AIRPORT , VT, United States (KMVL) 44-32N 72-37W 223M
May 14, 2021 - 09:54 PM EDT / 2021.05.15 0154 UTC
Wind: from the S (170 degrees) at 5 MPH (4 KT):0
Visibility: 10 mile(s):0
Sky conditions: mostly cloudy
Temperature: 48.9 F (9.4 C)
Dew Point: 42.1 F (5.6 C)
Relative Humidity: 77%
Pressure (altimeter): 30.16 in. Hg (1021 hPa)
ob: KMVL 150154Z AUTO 17004KT 10SM BKN100 09/06 A3016 RMK AO2 SLP217 T00940056
cycle: 2

Station Type Date Time Source
KMVL TAF UTC NOAA

Error!

Example: see airport list